sensor_id;sensor_type;location;lat;lon;timestamp;pressure;altitude;pressure_sealevel;temperature;humidity
70248;BME280;57641;51.416;5.506;2023-06-14T00:01:51;101453.22;;;24.90;36.50
70248;BME280;57641;51.416;5.506;2023-06-14T00:04:16;101448.41;;;24.86;36.48
70248;BME280;57641;51.416;5.506;2023-06-14T00:06:43;101446.75;;;24.85;36.05
70248;BME280;57641;51.416;5.506;2023-06-14T00:09:11;101448.88;;;24.82;36.00
70248;BME280;57641;51.416;5.506;2023-06-14T00:11:41;101444.00;;;24.73;35.98
70248;BME280;57641;51.416;5.506;2023-06-14T00:14:07;101444.81;;;24.73;36.04
70248;BME280;57641;51.416;5.506;2023-06-14T00:16:32;101450.63;;;24.77;35.95
70248;BME280;57641;51.416;5.506;2023-06-14T00:18:59;101446.50;;;24.74;36.09
70248;BME280;57641;51.416;5.506;2023-06-14T00:21:25;101449.06;;;24.69;35.75
70248;BME280;57641;51.416;5.506;2023-06-14T00:23:53;101462.94;;;24.68;36.70
70248;BME280;57641;51.416;5.506;2023-06-14T00:26:19;101461.00;;;24.57;36.83
70248;BME280;57641;51.416;5.506;2023-06-14T00:28:44;101461.56;;;24.59;36.07
70248;BME280;57641;51.416;5.506;2023-06-14T00:31:10;101459.56;;;24.54;36.57
70248;BME280;57641;51.416;5.506;2023-06-14T00:33:35;101463.94;;;24.55;36.98
70248;BME280;57641;51.416;5.506;2023-06-14T00:36:01;101466.09;;;24.53;36.71
70248;BME280;57641;51.416;5.506;2023-06-14T00:38:26;101467.97;;;24.53;36.95
70248;BME280;57641;51.416;5.506;2023-06-14T00:40:52;101460.03;;;24.51;36.39
70248;BME280;57641;51.416;5.506;2023-06-14T00:43:17;101466.25;;;24.40;36.63
70248;BME280;57641;51.416;5.506;2023-06-14T00:45:42;101466.31;;;24.33;36.88
70248;BME280;57641;51.416;5.506;2023-06-14T00:48:10;101461.13;;;24.32;35.93
70248;BME280;57641;51.416;5.506;2023-06-14T00:50:36;101465.28;;;24.34;35.73
70248;BME280;57641;51.416;5.506;2023-06-14T00:53:03;101467.09;;;24.22;36.93
70248;BME280;57641;51.416;5.506;2023-06-14T00:55:29;101461.72;;;24.16;37.05
70248;BME280;57641;51.416;5.506;2023-06-14T00:57:55;101461.78;;;24.09;37.07
70248;BME280;57641;51.416;5.506;2023-06-14T01:00:22;101460.09;;;24.08;36.81
70248;BME280;57641;51.416;5.506;2023-06-14T01:02:47;101461.56;;;24.11;36.78
70248;BME280;57641;51.416;5.506;2023-06-14T01:05:15;101457.44;;;24.02;36.85
70248;BME280;57641;51.416;5.506;2023-06-14T01:11:07;101463.28;;;23.87;36.53
70248;BME280;57641;51.416;5.506;2023-06-14T01:13:32;101460.63;;;23.80;37.31
70248;BME280;57641;51.416;5.506;2023-06-14T01:15:58;101465.22;;;23.80;37.29
70248;BME280;57641;51.416;5.506;2023-06-14T01:18:24;101468.56;;;23.82;36.97
70248;BME280;57641;51.416;5.506;2023-06-14T01:20:51;101462.28;;;23.81;36.94
70248;BME280;57641;51.416;5.506;2023-06-14T01:23:21;101461.50;;;23.74;37.50
70248;BME280;57641;51.416;5.506;2023-06-14T01:25:48;101468.88;;;23.74;37.58
70248;BME280;57641;51.416;5.506;2023-06-14T01:28:18;101465.31;;;23.73;37.62
70248;BME280;57641;51.416;5.506;2023-06-14T01:30:48;101472.88;;;23.71;36.92
70248;BME280;57641;51.416;5.506;2023-06-14T01:33:26;101461.97;;;23.71;37.66
70248;BME280;57641;51.416;5.506;2023-06-14T01:35:53;101474.91;;;23.58;37.19
70248;BME280;57641;51.416;5.506;2023-06-14T01:38:22;101475.72;;;23.58;37.00
70248;BME280;57641;51.416;5.506;2023-06-14T01:40:49;101468.84;;;23.55;37.18
70248;BME280;57641;51.416;5.506;2023-06-14T01:43:16;101477.47;;;23.52;36.42
70248;BME280;57641;51.416;5.506;2023-06-14T01:45:45;101468.84;;;23.55;35.75
70248;BME280;57641;51.416;5.506;2023-06-14T01:48:11;101466.47;;;23.59;35.70
70248;BME280;57641;51.416;5.506;2023-06-14T01:50:36;101463.09;;;23.64;36.02
70248;BME280;57641;51.416;5.506;2023-06-14T01:53:02;101462.88;;;23.65;35.53
70248;BME280;57641;51.416;5.506;2023-06-14T01:55:28;101457.63;;;23.64;35.47
70248;BME280;57641;51.416;5.506;2023-06-14T01:57:53;101466.09;;;23.55;35.98
70248;BME280;57641;51.416;5.506;2023-06-14T02:00:20;101455.38;;;23.61;34.93
70248;BME280;57641;51.416;5.506;2023-06-14T02:02:46;101462.34;;;23.56;35.72
70248;BME280;57641;51.416;5.506;2023-06-14T02:05:12;101465.13;;;23.50;35.68
70248;BME280;57641;51.416;5.506;2023-06-14T02:07:38;101472.00;;;23.52;35.67
70248;BME280;57641;51.416;5.506;2023-06-14T02:10:04;101478.09;;;23.48;36.15
70248;BME280;57641;51.416;5.506;2023-06-14T02:12:30;101470.78;;;23.48;35.37
70248;BME280;57641;51.416;5.506;2023-06-14T02:14:55;101465.59;;;23.40;35.22
70248;BME280;57641;51.416;5.506;2023-06-14T02:17:22;101465.22;;;23.37;34.98
70248;BME280;57641;51.416;5.506;2023-06-14T02:19:47;101473.38;;;23.37;36.35
70248;BME280;57641;51.416;5.506;2023-06-14T02:22:15;101471.47;;;23.37;35.20
70248;BME280;57641;51.416;5.506;2023-06-14T02:24:41;101470.50;;;23.32;35.59
70248;BME280;57641;51.416;5.506;2023-06-14T02:27:07;101472.59;;;23.30;35.93
70248;BME280;57641;51.416;5.506;2023-06-14T02:29:33;101481.53;;;23.37;35.57
70248;BME280;57641;51.416;5.506;2023-06-14T02:31:59;101470.69;;;23.30;35.02
70248;BME280;57641;51.416;5.506;2023-06-14T02:34:25;101479.53;;;23.26;35.68
70248;BME280;57641;51.416;5.506;2023-06-14T02:36:50;101480.63;;;23.18;35.55
70248;BME280;57641;51.416;5.506;2023-06-14T02:39:18;101479.28;;;23.27;34.86
70248;BME280;57641;51.416;5.506;2023-06-14T02:41:46;101475.94;;;23.32;35.23
70248;BME280;57641;51.416;5.506;2023-06-14T02:44:13;101489.34;;;23.27;35.69
70248;BME280;57641;51.416;5.506;2023-06-14T02:46:40;101477.53;;;23.14;35.92
70248;BME280;57641;51.416;5.506;2023-06-14T02:49:06;101483.56;;;23.16;35.90
70248;BME280;57641;51.416;5.506;2023-06-14T02:51:31;101482.78;;;23.09;35.72
70248;BME280;57641;51.416;5.506;2023-06-14T02:53:57;101484.00;;;23.13;35.68
70248;BME280;57641;51.416;5.506;2023-06-14T02:56:22;101489.50;;;23.07;35.33
70248;BME280;57641;51.416;5.506;2023-06-14T02:58:48;101488.44;;;23.08;35.85
70248;BME280;57641;51.416;5.506;2023-06-14T03:01:14;101484.25;;;23.05;36.03
70248;BME280;57641;51.416;5.506;2023-06-14T03:03:40;101488.72;;;23.00;36.75
70248;BME280;57641;51.416;5.506;2023-06-14T03:06:05;101492.91;;;22.96;35.88
70248;BME280;57641;51.416;5.506;2023-06-14T03:08:31;101495.25;;;22.92;36.26
70248;BME280;57641;51.416;5.506;2023-06-14T03:11:04;101495.28;;;22.86;36.18
70248;BME280;57641;51.416;5.506;2023-06-14T03:13:36;101500.56;;;22.74;37.32
70248;BME280;57641;51.416;5.506;2023-06-14T03:16:03;101496.41;;;22.65;37.29
70248;BME280;57641;51.416;5.506;2023-06-14T03:18:31;101499.97;;;22.72;36.90
70248;BME280;57641;51.416;5.506;2023-06-14T03:21:01;101508.13;;;22.65;37.49
70248;BME280;57641;51.416;5.506;2023-06-14T03:23:27;101504.41;;;22.53;38.06
70248;BME280;57641;51.416;5.506;2023-06-14T03:25:52;101507.31;;;22.58;37.29
70248;BME280;57641;51.416;5.506;2023-06-14T03:28:18;101508.41;;;22.51;38.40
70248;BME280;57641;51.416;5.506;2023-06-14T03:30:43;101500.91;;;22.46;38.70
70248;BME280;57641;51.416;5.506;2023-06-14T03:33:09;101513.00;;;22.44;38.64
70248;BME280;57641;51.416;5.506;2023-06-14T03:35:34;101503.06;;;22.31;38.44
70248;BME280;57641;51.416;5.506;2023-06-14T03:38:00;101508.91;;;22.28;39.24
70248;BME280;57641;51.416;5.506;2023-06-14T03:40:26;101510.38;;;22.30;38.91
70248;BME280;57641;51.416;5.506;2023-06-14T03:42:53;101520.63;;;22.22;39.35
70248;BME280;57641;51.416;5.506;2023-06-14T03:45:19;101518.53;;;22.17;39.43
70248;BME280;57641;51.416;5.506;2023-06-14T03:47:44;101514.16;;;22.16;39.07
70248;BME280;57641;51.416;5.506;2023-06-14T03:50:10;101515.22;;;22.15;39.75
70248;BME280;57641;51.416;5.506;2023-06-14T03:52:36;101515.00;;;22.17;39.14
70248;BME280;57641;51.416;5.506;2023-06-14T03:55:02;101522.72;;;22.13;39.04
70248;BME280;57641;51.416;5.506;2023-06-14T03:57:29;101521.25;;;22.11;39.86
70248;BME280;57641;51.416;5.506;2023-06-14T03:59:55;101528.63;;;21.97;40.07
70248;BME280;57641;51.416;5.506;2023-06-14T04:02:20;101516.47;;;22.06;39.86
70248;BME280;57641;51.416;5.506;2023-06-14T04:04:48;101520.66;;;22.02;39.45
70248;BME280;57641;51.416;5.506;2023-06-14T04:07:15;101518.16;;;22.01;39.73
70248;BME280;57641;51.416;5.506;2023-06-14T04:09:45;101521.09;;;21.99;40.35
70248;BME280;57641;51.416;5.506;2023-06-14T04:12:10;101523.81;;;21.99;40.98
70248;BME280;57641;51.416;5.506;2023-06-14T04:14:39;101527.56;;;21.85;40.93
70248;BME280;57641;51.416;5.506;2023-06-14T04:17:05;101535.69;;;21.91;40.41
70248;BME280;57641;51.416;5.506;2023-06-14T04:19:31;101535.09;;;21.83;41.02
70248;BME280;57641;51.416;5.506;2023-06-14T04:21:58;101538.41;;;21.85;41.45
70248;BME280;57641;51.416;5.506;2023-06-14T04:24:26;101542.41;;;21.82;42.15
70248;BME280;57641;51.416;5.506;2023-06-14T04:26:58;101549.69;;;21.88;41.92
70248;BME280;57641;51.416;5.506;2023-06-14T04:29:24;101539.25;;;21.85;41.53
70248;BME280;57641;51.416;5.506;2023-06-14T04:31:54;101535.50;;;21.86;42.40
70248;BME280;57641;51.416;5.506;2023-06-14T04:34:20;101533.41;;;21.88;42.47
70248;BME280;57641;51.416;5.506;2023-06-14T04:36:47;101535.28;;;21.95;41.26
70248;BME280;57641;51.416;5.506;2023-06-14T04:39:22;101545.53;;;21.99;42.13
70248;BME280;57641;51.416;5.506;2023-06-14T04:41:48;101535.09;;;22.03;41.21
70248;BME280;57641;51.416;5.506;2023-06-14T04:44:17;101542.78;;;22.12;41.07
70248;BME280;57641;51.416;5.506;2023-06-14T04:46:43;101541.75;;;22.07;40.90
70248;BME280;57641;51.416;5.506;2023-06-14T04:49:15;101543.03;;;22.04;42.44
70248;BME280;57641;51.416;5.506;2023-06-14T04:51:42;101542.38;;;22.09;40.52
70248;BME280;57641;51.416;5.506;2023-06-14T04:54:09;101549.06;;;22.00;40.22
70248;BME280;57641;51.416;5.506;2023-06-14T04:56:41;101550.28;;;22.17;39.29
70248;BME280;57641;51.416;5.506;2023-06-14T04:59:11;101553.00;;;22.30;38.23
70248;BME280;57641;51.416;5.506;2023-06-14T05:01:36;101547.09;;;22.46;36.98
70248;BME280;57641;51.416;5.506;2023-06-14T05:04:03;101553.94;;;22.55;37.01
70248;BME280;57641;51.416;5.506;2023-06-14T05:06:29;101547.88;;;22.53;38.00
70248;BME280;57641;51.416;5.506;2023-06-14T05:08:56;101549.34;;;22.62;36.93
70248;BME280;57641;51.416;5.506;2023-06-14T05:11:21;101546.84;;;22.54;37.87
70248;BME280;57641;51.416;5.506;2023-06-14T05:13:49;101554.31;;;22.65;37.51
70248;BME280;57641;51.416;5.506;2023-06-14T05:16:15;101559.75;;;22.65;37.90
70248;BME280;57641;51.416;5.506;2023-06-14T05:18:42;101556.84;;;22.73;38.19
70248;BME280;57641;51.416;5.506;2023-06-14T05:21:08;101566.44;;;22.76;37.84
70248;BME280;57641;51.416;5.506;2023-06-14T05:23:33;101557.44;;;22.82;37.38
70248;BME280;57641;51.416;5.506;2023-06-14T05:25:59;101563.22;;;22.92;36.94
70248;BME280;57641;51.416;5.506;2023-06-14T05:28:28;101562.75;;;23.02;36.99
70248;BME280;57641;51.416;5.506;2023-06-14T05:30:53;101567.78;;;23.05;36.72
70248;BME280;57641;51.416;5.506;2023-06-14T05:33:18;101561.69;;;23.09;36.84
70248;BME280;57641;51.416;5.506;2023-06-14T05:35:44;101567.31;;;23.08;37.16
70248;BME280;57641;51.416;5.506;2023-06-14T05:38:10;101569.34;;;23.19;36.47
70248;BME280;57641;51.416;5.506;2023-06-14T05:40:35;101573.75;;;23.20;36.24
70248;BME280;57641;51.416;5.506;2023-06-14T05:43:01;101573.34;;;23.16;37.39
70248;BME280;57641;51.416;5.506;2023-06-14T05:45:26;101580.81;;;23.28;37.91
70248;BME280;57641;51.416;5.506;2023-06-14T05:47:52;101584.81;;;23.25;38.50
70248;BME280;57641;51.416;5.506;2023-06-14T05:50:20;101577.03;;;23.29;37.20
70248;BME280;57641;51.416;5.506;2023-06-14T05:52:45;101591.38;;;23.42;36.57
70248;BME280;57641;51.416;5.506;2023-06-14T05:55:11;101585.25;;;23.53;35.76
70248;BME280;57641;51.416;5.506;2023-06-14T05:57:39;101586.09;;;23.54;36.83
70248;BME280;57641;51.416;5.506;2023-06-14T06:00:08;101592.50;;;23.66;35.75
70248;BME280;57641;51.416;5.506;2023-06-14T06:02:36;101596.91;;;23.67;35.83
70248;BME280;57641;51.416;5.506;2023-06-14T06:05:02;101599.50;;;23.80;35.07
70248;BME280;57641;51.416;5.506;2023-06-14T06:07:28;101595.06;;;23.86;34.13
70248;BME280;57641;51.416;5.506;2023-06-14T06:09:53;101601.91;;;23.95;34.19
70248;BME280;57641;51.416;5.506;2023-06-14T06:12:19;101594.63;;;23.89;36.03
70248;BME280;57641;51.416;5.506;2023-06-14T06:14:44;101596.34;;;24.08;35.26
70248;BME280;57641;51.416;5.506;2023-06-14T06:17:10;101604.88;;;24.12;34.64
70248;BME280;57641;51.416;5.506;2023-06-14T06:19:35;101603.19;;;24.17;34.29
70248;BME280;57641;51.416;5.506;2023-06-14T06:22:01;101613.88;;;24.19;33.99
70248;BME280;57641;51.416;5.506;2023-06-14T06:24:27;101614.56;;;24.08;34.52
70248;BME280;57641;51.416;5.506;2023-06-14T06:26:52;101606.31;;;24.21;34.50
70248;BME280;57641;51.416;5.506;2023-06-14T06:29:18;101614.56;;;24.32;34.43
70248;BME280;57641;51.416;5.506;2023-06-14T06:31:43;101619.72;;;24.40;34.40
70248;BME280;57641;51.416;5.506;2023-06-14T06:34:10;101618.00;;;24.46;34.43
70248;BME280;57641;51.416;5.506;2023-06-14T06:36:36;101610.13;;;24.56;34.39
70248;BME280;57641;51.416;5.506;2023-06-14T06:39:02;101620.19;;;24.56;34.22
70248;BME280;57641;51.416;5.506;2023-06-14T06:41:34;101618.97;;;24.70;33.69
70248;BME280;57641;51.416;5.506;2023-06-14T06:44:02;101625.03;;;24.72;33.57
70248;BME280;57641;51.416;5.506;2023-06-14T06:46:28;101632.00;;;24.86;34.11
70248;BME280;57641;51.416;5.506;2023-06-14T06:48:53;101636.88;;;25.02;33.25
70248;BME280;57641;51.416;5.506;2023-06-14T06:51:19;101638.31;;;25.05;33.23
70248;BME280;57641;51.416;5.506;2023-06-14T06:53:52;101634.06;;;25.09;32.74
70248;BME280;57641;51.416;5.506;2023-06-14T06:56:18;101637.91;;;25.19;32.46
70248;BME280;57641;51.416;5.506;2023-06-14T06:58:45;101638.19;;;25.30;32.23
70248;BME280;57641;51.416;5.506;2023-06-14T07:01:10;101637.75;;;25.33;31.92
70248;BME280;57641;51.416;5.506;2023-06-14T07:03:37;101641.66;;;25.37;32.36
70248;BME280;57641;51.416;5.506;2023-06-14T07:06:02;101646.69;;;25.51;32.63
70248;BME280;57641;51.416;5.506;2023-06-14T07:08:28;101650.56;;;25.62;31.94
70248;BME280;57641;51.416;5.506;2023-06-14T07:10:53;101644.88;;;25.63;31.63
70248;BME280;57641;51.416;5.506;2023-06-14T07:13:19;101644.06;;;25.75;31.12
70248;BME280;57641;51.416;5.506;2023-06-14T07:15:44;101656.31;;;25.84;31.77
70248;BME280;57641;51.416;5.506;2023-06-14T07:18:10;101650.63;;;25.85;32.36
70248;BME280;57641;51.416;5.506;2023-06-14T07:20:35;101646.22;;;25.84;32.15
70248;BME280;57641;51.416;5.506;2023-06-14T07:23:03;101657.75;;;25.98;32.09
70248;BME280;57641;51.416;5.506;2023-06-14T07:25:29;101649.56;;;25.98;30.99
70248;BME280;57641;51.416;5.506;2023-06-14T07:27:55;101656.59;;;26.05;31.13
70248;BME280;57641;51.416;5.506;2023-06-14T07:30:20;101655.78;;;26.17;30.94
70248;BME280;57641;51.416;5.506;2023-06-14T07:32:46;101660.91;;;26.25;30.72
70248;BME280;57641;51.416;5.506;2023-06-14T07:35:12;101659.25;;;26.35;30.75
70248;BME280;57641;51.416;5.506;2023-06-14T07:37:37;101673.03;;;26.40;30.25
70248;BME280;57641;51.416;5.506;2023-06-14T07:40:03;101668.88;;;26.49;30.08
70248;BME280;57641;51.416;5.506;2023-06-14T07:42:34;101676.13;;;26.56;30.19
70248;BME280;57641;51.416;5.506;2023-06-14T07:45:00;101675.16;;;26.62;29.96
70248;BME280;57641;51.416;5.506;2023-06-14T07:47:26;101676.34;;;26.66;29.53
70248;BME280;57641;51.416;5.506;2023-06-14T07:49:51;101673.59;;;26.77;29.62
70248;BME280;57641;51.416;5.506;2023-06-14T07:52:17;101670.88;;;26.77;30.03
70248;BME280;57641;51.416;5.506;2023-06-14T07:54:42;101669.31;;;26.81;30.40
70248;BME280;57641;51.416;5.506;2023-06-14T07:57:08;101680.25;;;26.93;30.15
70248;BME280;57641;51.416;5.506;2023-06-14T07:59:34;101684.91;;;26.93;29.55
70248;BME280;57641;51.416;5.506;2023-06-14T08:01:59;101686.78;;;27.04;30.21
70248;BME280;57641;51.416;5.506;2023-06-14T08:04:25;101688.66;;;27.15;29.91
70248;BME280;57641;51.416;5.506;2023-06-14T08:06:50;101690.84;;;27.01;29.71
70248;BME280;57641;51.416;5.506;2023-06-14T08:09:16;101692.84;;;27.17;29.69
70248;BME280;57641;51.416;5.506;2023-06-14T08:11:41;101691.72;;;27.18;29.07
70248;BME280;57641;51.416;5.506;2023-06-14T08:14:08;101693.03;;;27.27;29.22
70248;BME280;57641;51.416;5.506;2023-06-14T08:16:33;101692.06;;;27.34;29.16
70248;BME280;57641;51.416;5.506;2023-06-14T08:18:59;101689.91;;;27.36;28.34
70248;BME280;57641;51.416;5.506;2023-06-14T08:21:24;101688.22;;;27.35;28.16
70248;BME280;57641;51.416;5.506;2023-06-14T08:23:52;101688.22;;;27.35;28.68
70248;BME280;57641;51.416;5.506;2023-06-14T08:26:18;101682.84;;;27.40;27.55
70248;BME280;57641;51.416;5.506;2023-06-14T08:28:44;101679.97;;;27.46;28.69
70248;BME280;57641;51.416;5.506;2023-06-14T08:31:09;101686.25;;;27.58;28.59
70248;BME280;57641;51.416;5.506;2023-06-14T08:33:35;101681.31;;;27.72;28.27
70248;BME280;57641;51.416;5.506;2023-06-14T08:36:00;101690.88;;;27.69;27.80
70248;BME280;57641;51.416;5.506;2023-06-14T08:38:26;101684.53;;;27.69;27.94
70248;BME280;57641;51.416;5.506;2023-06-14T08:40:52;101684.72;;;27.79;28.04
70248;BME280;57641;51.416;5.506;2023-06-14T08:43:18;101687.72;;;27.94;27.87
70248;BME280;57641;51.416;5.506;2023-06-14T08:45:46;101692.53;;;28.04;27.85
70248;BME280;57641;51.416;5.506;2023-06-14T08:48:13;101685.84;;;28.11;26.64
70248;BME280;57641;51.416;5.506;2023-06-14T08:50:43;101683.84;;;28.24;27.29
70248;BME280;57641;51.416;5.506;2023-06-14T08:53:13;101685.28;;;28.26;26.44
70248;BME280;57641;51.416;5.506;2023-06-14T08:55:45;101684.03;;;28.34;26.38
70248;BME280;57641;51.416;5.506;2023-06-14T08:58:13;101685.19;;;28.38;26.45
70248;BME280;57641;51.416;5.506;2023-06-14T09:00:40;101682.28;;;28.44;26.76
70248;BME280;57641;51.416;5.506;2023-06-14T09:03:08;101685.41;;;28.53;26.58
70248;BME280;57641;51.416;5.506;2023-06-14T09:05:38;101686.00;;;28.55;26.24
70248;BME280;57641;51.416;5.506;2023-06-14T09:08:04;101681.38;;;28.61;26.37
70248;BME280;57641;51.416;5.506;2023-06-14T09:10:31;101680.94;;;28.30;26.61
70248;BME280;57641;51.416;5.506;2023-06-14T09:13:00;101683.88;;;28.62;26.34
70248;BME280;57641;51.416;5.506;2023-06-14T09:15:26;101683.28;;;28.77;25.69
70248;BME280;57641;51.416;5.506;2023-06-14T09:17:53;101686.31;;;28.75;24.20
70248;BME280;57641;51.416;5.506;2023-06-14T09:20:18;101683.69;;;28.85;24.10
70248;BME280;57641;51.416;5.506;2023-06-14T09:22:44;101688.84;;;28.82;23.58
70248;BME280;57641;51.416;5.506;2023-06-14T09:25:10;101683.94;;;28.84;23.80
70248;BME280;57641;51.416;5.506;2023-06-14T09:27:37;101681.97;;;28.79;22.23
70248;BME280;57641;51.416;5.506;2023-06-14T09:30:10;101685.53;;;28.80;23.16
70248;BME280;57641;51.416;5.506;2023-06-14T09:32:39;101678.97;;;28.81;22.38
70248;BME280;57641;51.416;5.506;2023-06-14T09:35:09;101684.72;;;29.01;22.65
70248;BME280;57641;51.416;5.506;2023-06-14T09:37:35;101687.41;;;29.18;22.57
70248;BME280;57641;51.416;5.506;2023-06-14T09:40:03;101690.53;;;29.26;21.90
70248;BME280;57641;51.416;5.506;2023-06-14T09:42:29;101688.78;;;29.20;22.02
70248;BME280;57641;51.416;5.506;2023-06-14T09:44:56;101692.84;;;29.13;21.88
70248;BME280;57641;51.416;5.506;2023-06-14T09:47:23;101689.75;;;29.31;21.19
70248;BME280;57641;51.416;5.506;2023-06-14T09:49:49;101695.19;;;29.26;22.03
70248;BME280;57641;51.416;5.506;2023-06-14T09:52:19;101687.47;;;29.45;21.72
70248;BME280;57641;51.416;5.506;2023-06-14T09:54:47;101683.31;;;29.42;20.77
70248;BME280;57641;51.416;5.506;2023-06-14T09:57:17;101685.81;;;29.44;21.12
70248;BME280;57641;51.416;5.506;2023-06-14T09:59:46;101682.59;;;29.52;21.49
70248;BME280;57641;51.416;5.506;2023-06-14T10:02:25;101686.22;;;29.57;21.91
70248;BME280;57641;51.416;5.506;2023-06-14T10:05:12;101677.03;;;29.47;22.39
70248;BME280;57641;51.416;5.506;2023-06-14T10:07:58;101687.88;;;29.58;22.76
70248;BME280;57641;51.416;5.506;2023-06-14T10:10:25;101688.56;;;29.44;20.97
70248;BME280;57641;51.416;5.506;2023-06-14T10:12:51;101680.66;;;29.52;19.97
70248;BME280;57641;51.416;5.506;2023-06-14T10:15:22;101675.75;;;29.54;20.76
70248;BME280;57641;51.416;5.506;2023-06-14T10:17:53;101684.72;;;29.71;20.64
70248;BME280;57641;51.416;5.506;2023-06-14T10:20:33;101684.97;;;29.70;20.91
70248;BME280;57641;51.416;5.506;2023-06-14T10:23:10;101677.09;;;29.78;21.10
70248;BME280;57641;51.416;5.506;2023-06-14T10:25:38;101676.00;;;29.79;20.69
70248;BME280;57641;51.416;5.506;2023-06-14T10:28:18;101677.53;;;29.92;20.47
70248;BME280;57641;51.416;5.506;2023-06-14T10:33:32;101673.44;;;29.73;21.00
70248;BME280;57641;51.416;5.506;2023-06-14T10:38:33;101677.78;;;29.91;20.85
70248;BME280;57641;51.416;5.506;2023-06-14T10:41:00;101678.50;;;30.08;20.89
70248;BME280;57641;51.416;5.506;2023-06-14T10:43:28;101676.00;;;30.06;20.84
70248;BME280;57641;51.416;5.506;2023-06-14T10:46:15;101684.03;;;30.13;20.81
70248;BME280;57641;51.416;5.506;2023-06-14T10:48:43;101681.44;;;30.01;21.27
70248;BME280;57641;51.416;5.506;2023-06-14T10:51:19;101686.44;;;30.09;21.69
70248;BME280;57641;51.416;5.506;2023-06-14T10:53:51;101676.59;;;30.13;20.72
70248;BME280;57641;51.416;5.506;2023-06-14T10:56:36;101676.47;;;30.35;22.16
70248;BME280;57641;51.416;5.506;2023-06-14T10:59:02;101689.19;;;30.46;22.24
70248;BME280;57641;51.416;5.506;2023-06-14T11:04:10;101678.00;;;30.53;20.89
70248;BME280;57641;51.416;5.506;2023-06-14T11:06:49;101683.19;;;30.12;20.62
70248;BME280;57641;51.416;5.506;2023-06-14T11:12:12;101680.44;;;30.12;20.18
70248;BME280;57641;51.416;5.506;2023-06-14T11:14:38;101672.81;;;30.25;20.70
70248;BME280;57641;51.416;5.506;2023-06-14T11:17:05;101673.19;;;30.38;21.07
70248;BME280;57641;51.416;5.506;2023-06-14T11:19:30;101676.88;;;30.49;21.75
70248;BME280;57641;51.416;5.506;2023-06-14T11:21:57;101671.25;;;30.34;21.25
70248;BME280;57641;51.416;5.506;2023-06-14T11:24:22;101675.50;;;30.51;21.42
70248;BME280;57641;51.416;5.506;2023-06-14T11:26:48;101665.13;;;30.63;21.56
70248;BME280;57641;51.416;5.506;2023-06-14T11:29:15;101663.50;;;30.73;20.32
70248;BME280;57641;51.416;5.506;2023-06-14T11:31:45;101661.91;;;30.77;19.83
70248;BME280;57641;51.416;5.506;2023-06-14T11:34:11;101664.06;;;30.70;20.61
70248;BME280;57641;51.416;5.506;2023-06-14T11:36:38;101669.31;;;30.71;20.52
70248;BME280;57641;51.416;5.506;2023-06-14T11:39:05;101666.19;;;30.57;20.21
70248;BME280;57641;51.416;5.506;2023-06-14T11:41:40;101666.88;;;30.85;20.89
70248;BME280;57641;51.416;5.506;2023-06-14T11:44:07;101663.25;;;30.32;21.25
70248;BME280;57641;51.416;5.506;2023-06-14T11:46:33;101662.94;;;30.66;22.28
70248;BME280;57641;51.416;5.506;2023-06-14T11:48:59;101663.28;;;30.79;21.35
70248;BME280;57641;51.416;5.506;2023-06-14T11:51:29;101660.31;;;30.91;21.28
70248;BME280;57641;51.416;5.506;2023-06-14T11:53:55;101668.13;;;31.09;21.64
70248;BME280;57641;51.416;5.506;2023-06-14T11:56:21;101671.19;;;31.18;20.94
70248;BME280;57641;51.416;5.506;2023-06-14T11:58:46;101664.25;;;31.05;20.87
70248;BME280;57641;51.416;5.506;2023-06-14T12:01:19;101658.22;;;31.08;20.97
70248;BME280;57641;51.416;5.506;2023-06-14T12:03:49;101657.91;;;31.04;20.59
70248;BME280;57641;51.416;5.506;2023-06-14T12:06:15;101658.19;;;31.03;20.95
70248;BME280;57641;51.416;5.506;2023-06-14T12:08:43;101654.38;;;31.19;21.62
70248;BME280;57641;51.416;5.506;2023-06-14T12:11:12;101658.28;;;31.33;21.18
70248;BME280;57641;51.416;5.506;2023-06-14T12:13:42;101665.47;;;31.39;21.51
70248;BME280;57641;51.416;5.506;2023-06-14T12:16:09;101655.81;;;31.42;20.82
70248;BME280;57641;51.416;5.506;2023-06-14T12:18:36;101657.41;;;31.18;20.13
70248;BME280;57641;51.416;5.506;2023-06-14T12:21:09;101661.97;;;30.92;20.93
70248;BME280;57641;51.416;5.506;2023-06-14T12:23:53;101668.69;;;31.21;19.98
70248;BME280;57641;51.416;5.506;2023-06-14T12:26:19;101661.25;;;31.17;20.59
70248;BME280;57641;51.416;5.506;2023-06-14T12:28:46;101656.09;;;31.35;20.57
70248;BME280;57641;51.416;5.506;2023-06-14T12:31:16;101653.28;;;31.30;20.71
70248;BME280;57641;51.416;5.506;2023-06-14T12:33:42;101656.34;;;31.39;21.01
70248;BME280;57641;51.416;5.506;2023-06-14T12:36:09;101656.16;;;31.61;21.47
70248;BME280;57641;51.416;5.506;2023-06-14T12:38:36;101656.38;;;31.44;20.81
70248;BME280;57641;51.416;5.506;2023-06-14T12:41:02;101658.34;;;31.64;20.33
70248;BME280;57641;51.416;5.506;2023-06-14T12:43:27;101662.47;;;31.56;19.76
70248;BME280;57641;51.416;5.506;2023-06-14T12:45:53;101667.13;;;31.51;20.41
70248;BME280;57641;51.416;5.506;2023-06-14T12:48:19;101657.81;;;31.82;20.47
70248;BME280;57641;51.416;5.506;2023-06-14T12:50:45;101654.78;;;31.88;21.25
70248;BME280;57641;51.416;5.506;2023-06-14T12:53:10;101655.34;;;31.70;20.09
70248;BME280;57641;51.416;5.506;2023-06-14T12:55:36;101654.50;;;31.80;20.72
70248;BME280;57641;51.416;5.506;2023-06-14T12:58:01;101651.47;;;31.81;20.54
70248;BME280;57641;51.416;5.506;2023-06-14T13:00:27;101663.06;;;31.99;21.13
70248;BME280;57641;51.416;5.506;2023-06-14T13:02:52;101664.75;;;32.20;20.49
70248;BME280;57641;51.416;5.506;2023-06-14T13:05:18;101668.03;;;32.27;20.00